Estación Meteorológica Peña el Pijo (Robertgarden) [ 09/23/18 03:12:46 CEST ]

Fecha Hora Presion(HPa) Temp (°C) Humedad % Rocio (°C) Viento ( m/s) Direccion Lluvia 1Hora(mm) Lluvia 24H(mm) LLuvia Total(mm)
2018-Jul-03 01:01:46 1011.400 17.1 55 7.9         269.36
2018-Jul-03 02:01:36 1011.300 15.6 57 7.1         269.36
2018-Jul-03 03:02:09 1011.000 13.9 62 6.7         269.36
2018-Jul-03 04:02:19 1010.700 12.5 66 6.3         269.36
2018-Jul-03 05:04:01 1010.600 12.2 68 6.4         269.36
2018-Jul-03 06:02:13 1010.600 11.1 70 5.9         269.36
2018-Jul-03 07:01:54 1010.900 10.9 71 5.9         269.36
2018-Jul-03 08:01:43 1010.900 12.8 74 8.3         269.36
2018-Jul-03 09:01:51 1010.600 19.3 58 10.8         269.36
2018-Jul-03 10:01:48 1010.500 24.1 44 11.0         269.36
2018-Jul-03 11:01:57 1010.200 28.9 36 12.2         269.36
2018-Jul-03 12:01:36 1010.400 31.2 27 9.8         269.36
2018-Jul-03 13:01:46 1009.800 33.4 21 8.0         269.36
2018-Jul-03 14:01:41 1009.700 34.2 18 6.1         269.36
2018-Jul-03 15:01:31 1009.500 35.4 14 3.1         269.36
2018-Jul-03 16:01:30 1009.400 35.8 12 1.4         269.36
2018-Jul-03 17:01:43 1009.000 35.3 13 2.1 2.7 N     269.36
2018-Jul-03 18:01:47 1008.700 35.3 12 1.1         269.36
2018-Jul-03 19:01:39 1008.600 34.2 15 3.2         269.36
2018-Jul-03 20:01:24 1008.500 30.6 25 8.1         269.36
2018-Jul-03 21:01:45 1009.500 26.9 31 8.3         269.36
2018-Jul-03 22:01:51 1009.700 23.6 37 8.0         269.36
2018-Jul-03 23:01:56 1010.700 20.0 45 7.6         269.36

Temperatura Máxima:35°    Temperatura Mínima:10°
Presión Máxima:1011.400 Hpa    Presión Mínima:1008.500 Hpa


Volver